sensor_id;sensor_type;location;lat;lon;timestamp;P1;durP1;ratioP1;P2;durP2;ratioP2
9934;SDS011;5006;41.828;23.478;2024-03-25T00:01:02;9.95;;;6.18;;
9934;SDS011;5006;41.828;23.478;2024-03-25T00:02:08;7.80;;;6.68;;
9934;SDS011;5006;41.828;23.478;2024-03-25T00:03:15;8.10;;;6.43;;
9934;SDS011;5006;41.828;23.478;2024-03-25T00:04:20;10.07;;;6.78;;
9934;SDS011;5006;41.828;23.478;2024-03-25T00:05:27;8.20;;;6.10;;
9934;SDS011;5006;41.828;23.478;2024-03-25T00:06:33;8.80;;;6.88;;
9934;SDS011;5006;41.828;23.478;2024-03-25T00:07:42;8.18;;;6.32;;
9934;SDS011;5006;41.828;23.478;2024-03-25T00:08:47;7.20;;;5.82;;
9934;SDS011;5006;41.828;23.478;2024-03-25T00:09:53;7.70;;;5.68;;
9934;SDS011;5006;41.828;23.478;2024-03-25T00:10:59;5.88;;;4.68;;
9934;SDS011;5006;41.828;23.478;2024-03-25T00:12:05;8.57;;;5.20;;
9934;SDS011;5006;41.828;23.478;2024-03-25T00:13:11;5.50;;;4.15;;
9934;SDS011;5006;41.828;23.478;2024-03-25T00:14:16;4.18;;;3.78;;
9934;SDS011;5006;41.828;23.478;2024-03-25T00:15:23;7.90;;;6.07;;
9934;SDS011;5006;41.828;23.478;2024-03-25T00:16:29;7.28;;;5.72;;
9934;SDS011;5006;41.828;23.478;2024-03-25T00:17:35;7.50;;;6.03;;
9934;SDS011;5006;41.828;23.478;2024-03-25T00:18:41;6.32;;;5.65;;
9934;SDS011;5006;41.828;23.478;2024-03-25T00:19:48;5.88;;;5.10;;
9934;SDS011;5006;41.828;23.478;2024-03-25T00:20:55;6.60;;;5.20;;
9934;SDS011;5006;41.828;23.478;2024-03-25T00:22:00;5.43;;;4.55;;
9934;SDS011;5006;41.828;23.478;2024-03-25T00:23:09;5.90;;;4.80;;
9934;SDS011;5006;41.828;23.478;2024-03-25T00:24:14;6.18;;;4.80;;
9934;SDS011;5006;41.828;23.478;2024-03-25T00:25:19;4.70;;;4.20;;
9934;SDS011;5006;41.828;23.478;2024-03-25T00:26:24;5.40;;;4.30;;
9934;SDS011;5006;41.828;23.478;2024-03-25T00:27:30;7.45;;;4.13;;
9934;SDS011;5006;41.828;23.478;2024-03-25T00:28:35;4.38;;;3.83;;
9934;SDS011;5006;41.828;23.478;2024-03-25T00:29:41;5.18;;;3.47;;
9934;SDS011;5006;41.828;23.478;2024-03-25T00:30:48;5.30;;;3.65;;
9934;SDS011;5006;41.828;23.478;2024-03-25T00:31:54;3.35;;;3.00;;
9934;SDS011;5006;41.828;23.478;2024-03-25T00:33:00;3.30;;;3.00;;
9934;SDS011;5006;41.828;23.478;2024-03-25T00:34:07;3.30;;;2.65;;
9934;SDS011;5006;41.828;23.478;2024-03-25T00:35:12;3.08;;;2.50;;
9934;SDS011;5006;41.828;23.478;2024-03-25T00:36:18;3.22;;;2.28;;
9934;SDS011;5006;41.828;23.478;2024-03-25T00:37:24;3.88;;;1.90;;
9934;SDS011;5006;41.828;23.478;2024-03-25T00:38:32;2.70;;;2.05;;
9934;SDS011;5006;41.828;23.478;2024-03-25T00:39:38;1.77;;;1.48;;
9934;SDS011;5006;41.828;23.478;2024-03-25T00:40:43;1.30;;;1.20;;
9934;SDS011;5006;41.828;23.478;2024-03-25T00:41:49;1.40;;;1.30;;
9934;SDS011;5006;41.828;23.478;2024-03-25T00:42:54;1.40;;;1.30;;
9934;SDS011;5006;41.828;23.478;2024-03-25T00:43:59;1.05;;;0.80;;
9934;SDS011;5006;41.828;23.478;2024-03-25T00:45:04;1.15;;;0.82;;
9934;SDS011;5006;41.828;23.478;2024-03-25T00:46:11;0.70;;;0.70;;
9934;SDS011;5006;41.828;23.478;2024-03-25T00:47:16;0.60;;;0.60;;
9934;SDS011;5006;41.828;23.478;2024-03-25T00:48:21;1.27;;;0.70;;
9934;SDS011;5006;41.828;23.478;2024-03-25T00:49:27;0.50;;;0.50;;
9934;SDS011;5006;41.828;23.478;2024-03-25T00:50:34;0.73;;;0.70;;
9934;SDS011;5006;41.828;23.478;2024-03-25T00:51:40;0.40;;;0.40;;
9934;SDS011;5006;41.828;23.478;2024-03-25T00:52:45;0.32;;;0.32;;
9934;SDS011;5006;41.828;23.478;2024-03-25T00:53:52;0.40;;;0.40;;
9934;SDS011;5006;41.828;23.478;2024-03-25T00:54:59;0.32;;;0.32;;
9934;SDS011;5006;41.828;23.478;2024-03-25T00:56:04;0.20;;;0.20;;
9934;SDS011;5006;41.828;23.478;2024-03-25T00:57:10;0.45;;;0.30;;
9934;SDS011;5006;41.828;23.478;2024-03-25T00:58:17;1.20;;;0.30;;
9934;SDS011;5006;41.828;23.478;2024-03-25T00:59:22;0.30;;;0.30;;
9934;SDS011;5006;41.828;23.478;2024-03-25T01:00:28;0.20;;;0.20;;
9934;SDS011;5006;41.828;23.478;2024-03-25T01:01:35;1.95;;;0.50;;
9934;SDS011;5006;41.828;23.478;2024-03-25T01:02:40;0.28;;;0.28;;
9934;SDS011;5006;41.828;23.478;2024-03-25T01:03:46;1.13;;;0.40;;
9934;SDS011;5006;41.828;23.478;2024-03-25T01:04:52;0.80;;;0.30;;
9934;SDS011;5006;41.828;23.478;2024-03-25T01:06:01;0.40;;;0.40;;
9934;SDS011;5006;41.828;23.478;2024-03-25T01:07:08;0.30;;;0.30;;
9934;SDS011;5006;41.828;23.478;2024-03-25T01:08:13;0.30;;;0.30;;
9934;SDS011;5006;41.828;23.478;2024-03-25T01:09:20;0.38;;;0.38;;
9934;SDS011;5006;41.828;23.478;2024-03-25T01:10:26;0.40;;;0.40;;
9934;SDS011;5006;41.828;23.478;2024-03-25T01:11:32;0.40;;;0.40;;
9934;SDS011;5006;41.828;23.478;2024-03-25T01:12:38;0.95;;;0.32;;
9934;SDS011;5006;41.828;23.478;2024-03-25T01:13:45;0.20;;;0.20;;
9934;SDS011;5006;41.828;23.478;2024-03-25T01:14:50;0.38;;;0.30;;
9934;SDS011;5006;41.828;23.478;2024-03-25T01:15:55;1.02;;;0.52;;
9934;SDS011;5006;41.828;23.478;2024-03-25T01:17:00;1.08;;;0.50;;
9934;SDS011;5006;41.828;23.478;2024-03-25T01:18:07;0.40;;;0.30;;
9934;SDS011;5006;41.828;23.478;2024-03-25T01:19:13;0.30;;;0.30;;
9934;SDS011;5006;41.828;23.478;2024-03-25T01:20:18;0.30;;;0.30;;
9934;SDS011;5006;41.828;23.478;2024-03-25T01:21:23;1.65;;;0.40;;
9934;SDS011;5006;41.828;23.478;2024-03-25T01:22:29;0.65;;;0.40;;
9934;SDS011;5006;41.828;23.478;2024-03-25T01:23:35;0.30;;;0.30;;
9934;SDS011;5006;41.828;23.478;2024-03-25T01:24:42;0.52;;;0.40;;
9934;SDS011;5006;41.828;23.478;2024-03-25T01:25:47;1.30;;;0.40;;
9934;SDS011;5006;41.828;23.478;2024-03-25T01:26:54;0.30;;;0.30;;
9934;SDS011;5006;41.828;23.478;2024-03-25T01:28:00;0.52;;;0.40;;
9934;SDS011;5006;41.828;23.478;2024-03-25T01:29:06;0.30;;;0.30;;
9934;SDS011;5006;41.828;23.478;2024-03-25T01:30:13;0.40;;;0.40;;
9934;SDS011;5006;41.828;23.478;2024-03-25T01:31:19;1.38;;;0.30;;
9934;SDS011;5006;41.828;23.478;2024-03-25T01:32:25;0.70;;;0.30;;
9934;SDS011;5006;41.828;23.478;2024-03-25T01:33:30;0.30;;;0.30;;
9934;SDS011;5006;41.828;23.478;2024-03-25T01:34:37;0.52;;;0.40;;
9934;SDS011;5006;41.828;23.478;2024-03-25T01:35:42;0.52;;;0.52;;
9934;SDS011;5006;41.828;23.478;2024-03-25T01:36:48;1.55;;;0.50;;
9934;SDS011;5006;41.828;23.478;2024-03-25T01:37:54;1.67;;;0.40;;
9934;SDS011;5006;41.828;23.478;2024-03-25T01:38:59;0.40;;;0.40;;
9934;SDS011;5006;41.828;23.478;2024-03-25T01:40:07;0.85;;;0.50;;
9934;SDS011;5006;41.828;23.478;2024-03-25T01:41:14;0.30;;;0.30;;
9934;SDS011;5006;41.828;23.478;2024-03-25T01:42:27;0.32;;;0.20;;
9934;SDS011;5006;41.828;23.478;2024-03-25T01:43:32;0.40;;;0.40;;
9934;SDS011;5006;41.828;23.478;2024-03-25T01:44:39;0.20;;;0.20;;
9934;SDS011;5006;41.828;23.478;2024-03-25T01:45:45;0.20;;;0.20;;
9934;SDS011;5006;41.828;23.478;2024-03-25T01:46:50;0.35;;;0.35;;
9934;SDS011;5006;41.828;23.478;2024-03-25T01:48:00;0.30;;;0.25;;
9934;SDS011;5006;41.828;23.478;2024-03-25T01:49:07;0.20;;;0.20;;
9934;SDS011;5006;41.828;23.478;2024-03-25T01:50:13;0.25;;;0.20;;
9934;SDS011;5006;41.828;23.478;2024-03-25T01:51:20;1.02;;;0.30;;
9934;SDS011;5006;41.828;23.478;2024-03-25T01:52:28;0.22;;;0.22;;
9934;SDS011;5006;41.828;23.478;2024-03-25T01:53:34;0.43;;;0.30;;
9934;SDS011;5006;41.828;23.478;2024-03-25T01:54:41;0.20;;;0.20;;
9934;SDS011;5006;41.828;23.478;2024-03-25T01:55:49;0.45;;;0.28;;
9934;SDS011;5006;41.828;23.478;2024-03-25T01:56:58;0.20;;;0.20;;
9934;SDS011;5006;41.828;23.478;2024-03-25T01:58:05;0.77;;;0.40;;
9934;SDS011;5006;41.828;23.478;2024-03-25T01:59:11;0.20;;;0.20;;
9934;SDS011;5006;41.828;23.478;2024-03-25T02:00:18;0.20;;;0.20;;
9934;SDS011;5006;41.828;23.478;2024-03-25T02:01:27;0.30;;;0.30;;
9934;SDS011;5006;41.828;23.478;2024-03-25T02:02:33;0.30;;;0.30;;
9934;SDS011;5006;41.828;23.478;2024-03-25T02:03:40;0.30;;;0.30;;
9934;SDS011;5006;41.828;23.478;2024-03-25T02:04:47;1.48;;;0.40;;
9934;SDS011;5006;41.828;23.478;2024-03-25T02:05:54;1.85;;;0.22;;
9934;SDS011;5006;41.828;23.478;2024-03-25T02:07:01;0.40;;;0.25;;
9934;SDS011;5006;41.828;23.478;2024-03-25T02:08:07;0.30;;;0.30;;
9934;SDS011;5006;41.828;23.478;2024-03-25T02:09:15;0.30;;;0.30;;
9934;SDS011;5006;41.828;23.478;2024-03-25T02:10:21;0.30;;;0.30;;
9934;SDS011;5006;41.828;23.478;2024-03-25T02:11:29;0.20;;;0.20;;
9934;SDS011;5006;41.828;23.478;2024-03-25T02:12:35;0.30;;;0.30;;
9934;SDS011;5006;41.828;23.478;2024-03-25T02:13:41;0.45;;;0.40;;
9934;SDS011;5006;41.828;23.478;2024-03-25T02:14:46;0.30;;;0.30;;
9934;SDS011;5006;41.828;23.478;2024-03-25T02:15:51;1.02;;;0.40;;
9934;SDS011;5006;41.828;23.478;2024-03-25T02:16:59;0.45;;;0.40;;
9934;SDS011;5006;41.828;23.478;2024-03-25T02:18:05;0.30;;;0.30;;
9934;SDS011;5006;41.828;23.478;2024-03-25T02:19:10;0.40;;;0.40;;
9934;SDS011;5006;41.828;23.478;2024-03-25T02:20:18;0.63;;;0.50;;
9934;SDS011;5006;41.828;23.478;2024-03-25T02:21:25;0.40;;;0.40;;
9934;SDS011;5006;41.828;23.478;2024-03-25T02:22:31;0.68;;;0.50;;
9934;SDS011;5006;41.828;23.478;2024-03-25T02:23:37;0.40;;;0.35;;
9934;SDS011;5006;41.828;23.478;2024-03-25T02:24:45;0.75;;;0.60;;
9934;SDS011;5006;41.828;23.478;2024-03-25T02:25:54;0.88;;;0.40;;
9934;SDS011;5006;41.828;23.478;2024-03-25T02:26:59;0.75;;;0.50;;
9934;SDS011;5006;41.828;23.478;2024-03-25T02:28:05;0.50;;;0.40;;
9934;SDS011;5006;41.828;23.478;2024-03-25T02:29:11;0.43;;;0.40;;
9934;SDS011;5006;41.828;23.478;2024-03-25T02:30:18;0.73;;;0.50;;
9934;SDS011;5006;41.828;23.478;2024-03-25T02:31:23;1.00;;;0.40;;
9934;SDS011;5006;41.828;23.478;2024-03-25T02:32:29;0.40;;;0.40;;
9934;SDS011;5006;41.828;23.478;2024-03-25T02:33:35;0.40;;;0.38;;
9934;SDS011;5006;41.828;23.478;2024-03-25T02:34:43;0.30;;;0.30;;
9934;SDS011;5006;41.828;23.478;2024-03-25T02:35:55;0.73;;;0.40;;
9934;SDS011;5006;41.828;23.478;2024-03-25T02:37:00;0.77;;;0.45;;
9934;SDS011;5006;41.828;23.478;2024-03-25T02:38:07;0.65;;;0.40;;
9934;SDS011;5006;41.828;23.478;2024-03-25T02:39:13;1.67;;;0.40;;
9934;SDS011;5006;41.828;23.478;2024-03-25T02:40:19;0.40;;;0.40;;
9934;SDS011;5006;41.828;23.478;2024-03-25T02:41:29;0.45;;;0.45;;
9934;SDS011;5006;41.828;23.478;2024-03-25T02:42:35;0.68;;;0.50;;
9934;SDS011;5006;41.828;23.478;2024-03-25T02:43:42;0.40;;;0.40;;
9934;SDS011;5006;41.828;23.478;2024-03-25T02:44:48;0.40;;;0.40;;
9934;SDS011;5006;41.828;23.478;2024-03-25T02:45:54;0.40;;;0.40;;
9934;SDS011;5006;41.828;23.478;2024-03-25T02:47:00;0.50;;;0.50;;
9934;SDS011;5006;41.828;23.478;2024-03-25T02:48:06;0.40;;;0.40;;
9934;SDS011;5006;41.828;23.478;2024-03-25T02:49:13;1.35;;;0.47;;
9934;SDS011;5006;41.828;23.478;2024-03-25T02:50:19;0.63;;;0.60;;
9934;SDS011;5006;41.828;23.478;2024-03-25T02:51:25;0.80;;;0.55;;
9934;SDS011;5006;41.828;23.478;2024-03-25T02:52:31;0.30;;;0.30;;
9934;SDS011;5006;41.828;23.478;2024-03-25T02:53:36;1.15;;;0.52;;
9934;SDS011;5006;41.828;23.478;2024-03-25T02:54:41;0.60;;;0.60;;
9934;SDS011;5006;41.828;23.478;2024-03-25T02:55:47;1.15;;;0.75;;
9934;SDS011;5006;41.828;23.478;2024-03-25T02:56:54;0.90;;;0.70;;
9934;SDS011;5006;41.828;23.478;2024-03-25T02:58:01;1.02;;;0.60;;
9934;SDS011;5006;41.828;23.478;2024-03-25T02:59:07;0.88;;;0.65;;
9934;SDS011;5006;41.828;23.478;2024-03-25T03:00:12;1.33;;;0.60;;
9934;SDS011;5006;41.828;23.478;2024-03-25T03:01:18;0.90;;;0.70;;
9934;SDS011;5006;41.828;23.478;2024-03-25T03:02:24;1.70;;;0.80;;
9934;SDS011;5006;41.828;23.478;2024-03-25T03:03:31;1.13;;;0.60;;
9934;SDS011;5006;41.828;23.478;2024-03-25T03:04:36;1.52;;;0.70;;
9934;SDS011;5006;41.828;23.478;2024-03-25T03:05:41;1.15;;;0.57;;
9934;SDS011;5006;41.828;23.478;2024-03-25T03:06:48;1.05;;;0.60;;
9934;SDS011;5006;41.828;23.478;2024-03-25T03:07:53;1.30;;;0.68;;
9934;SDS011;5006;41.828;23.478;2024-03-25T03:08:59;1.23;;;0.60;;
9934;SDS011;5006;41.828;23.478;2024-03-25T03:10:05;0.75;;;0.65;;
9934;SDS011;5006;41.828;23.478;2024-03-25T03:11:11;1.63;;;0.70;;
9934;SDS011;5006;41.828;23.478;2024-03-25T03:12:19;1.05;;;0.70;;
9934;SDS011;5006;41.828;23.478;2024-03-25T03:13:24;0.80;;;0.60;;
9934;SDS011;5006;41.828;23.478;2024-03-25T03:14:30;1.10;;;0.80;;
9934;SDS011;5006;41.828;23.478;2024-03-25T03:15:35;0.93;;;0.63;;
9934;SDS011;5006;41.828;23.478;2024-03-25T03:16:40;0.68;;;0.60;;
9934;SDS011;5006;41.828;23.478;2024-03-25T03:17:46;0.75;;;0.60;;
9934;SDS011;5006;41.828;23.478;2024-03-25T03:18:51;1.48;;;0.50;;
9934;SDS011;5006;41.828;23.478;2024-03-25T03:19:57;0.70;;;0.60;;
9934;SDS011;5006;41.828;23.478;2024-03-25T03:21:03;2.28;;;0.55;;
9934;SDS011;5006;41.828;23.478;2024-03-25T03:22:08;1.00;;;0.70;;
9934;SDS011;5006;41.828;23.478;2024-03-25T03:23:13;0.70;;;0.55;;
9934;SDS011;5006;41.828;23.478;2024-03-25T03:24:18;1.63;;;0.73;;
9934;SDS011;5006;41.828;23.478;2024-03-25T03:25:24;1.50;;;0.70;;
9934;SDS011;5006;41.828;23.478;2024-03-25T03:26:29;1.23;;;0.63;;
9934;SDS011;5006;41.828;23.478;2024-03-25T03:27:37;1.08;;;0.63;;
9934;SDS011;5006;41.828;23.478;2024-03-25T03:28:42;0.88;;;0.70;;
9934;SDS011;5006;41.828;23.478;2024-03-25T03:29:49;0.88;;;0.80;;
9934;SDS011;5006;41.828;23.478;2024-03-25T03:30:55;0.77;;;0.50;;
9934;SDS011;5006;41.828;23.478;2024-03-25T03:32:00;0.80;;;0.70;;
9934;SDS011;5006;41.828;23.478;2024-03-25T03:33:06;1.80;;;0.70;;
9934;SDS011;5006;41.828;23.478;2024-03-25T03:34:11;1.48;;;0.85;;
9934;SDS011;5006;41.828;23.478;2024-03-25T03:35:17;0.75;;;0.60;;
9934;SDS011;5006;41.828;23.478;2024-03-25T03:36:22;1.65;;;0.80;;
9934;SDS011;5006;41.828;23.478;2024-03-25T03:37:28;0.98;;;0.75;;
9934;SDS011;5006;41.828;23.478;2024-03-25T03:38:33;0.70;;;0.70;;
9934;SDS011;5006;41.828;23.478;2024-03-25T03:39:38;0.80;;;0.63;;
9934;SDS011;5006;41.828;23.478;2024-03-25T03:40:46;0.90;;;0.60;;
9934;SDS011;5006;41.828;23.478;2024-03-25T03:42:01;1.17;;;0.70;;
9934;SDS011;5006;41.828;23.478;2024-03-25T03:43:09;1.63;;;0.90;;
9934;SDS011;5006;41.828;23.478;2024-03-25T03:44:15;1.08;;;0.70;;
9934;SDS011;5006;41.828;23.478;2024-03-25T03:45:21;0.82;;;0.60;;
9934;SDS011;5006;41.828;23.478;2024-03-25T03:46:28;0.73;;;0.60;;
9934;SDS011;5006;41.828;23.478;2024-03-25T03:47:33;1.40;;;0.70;;
9934;SDS011;5006;41.828;23.478;2024-03-25T03:48:39;1.38;;;0.70;;
9934;SDS011;5006;41.828;23.478;2024-03-25T03:49:44;0.95;;;0.60;;
9934;SDS011;5006;41.828;23.478;2024-03-25T03:50:49;1.20;;;0.60;;
9934;SDS011;5006;41.828;23.478;2024-03-25T03:51:54;1.50;;;0.68;;
9934;SDS011;5006;41.828;23.478;2024-03-25T03:53:01;1.48;;;0.70;;
9934;SDS011;5006;41.828;23.478;2024-03-25T03:54:06;0.70;;;0.60;;
9934;SDS011;5006;41.828;23.478;2024-03-25T03:55:11;1.05;;;0.70;;
9934;SDS011;5006;41.828;23.478;2024-03-25T03:56:16;0.70;;;0.70;;
9934;SDS011;5006;41.828;23.478;2024-03-25T03:57:22;0.68;;;0.60;;
9934;SDS011;5006;41.828;23.478;2024-03-25T03:58:30;0.50;;;0.50;;
9934;SDS011;5006;41.828;23.478;2024-03-25T03:59:35;0.85;;;0.70;;
9934;SDS011;5006;41.828;23.478;2024-03-25T04:00:42;0.50;;;0.50;;
9934;SDS011;5006;41.828;23.478;2024-03-25T04:01:47;0.40;;;0.40;;
9934;SDS011;5006;41.828;23.478;2024-03-25T04:02:53;0.98;;;0.50;;
9934;SDS011;5006;41.828;23.478;2024-03-25T04:03:59;0.55;;;0.55;;
9934;SDS011;5006;41.828;23.478;2024-03-25T04:05:06;0.38;;;0.38;;
9934;SDS011;5006;41.828;23.478;2024-03-25T04:06:12;0.35;;;0.35;;
9934;SDS011;5006;41.828;23.478;2024-03-25T04:07:19;0.30;;;0.30;;
9934;SDS011;5006;41.828;23.478;2024-03-25T04:08:25;0.70;;;0.30;;
9934;SDS011;5006;41.828;23.478;2024-03-25T04:09:32;0.25;;;0.25;;
9934;SDS011;5006;41.828;23.478;2024-03-25T04:10:37;0.20;;;0.20;;
9934;SDS011;5006;41.828;23.478;2024-03-25T04:11:43;0.30;;;0.30;;
9934;SDS011;5006;41.828;23.478;2024-03-25T04:12:50;0.32;;;0.28;;
9934;SDS011;5006;41.828;23.478;2024-03-25T04:13:58;0.20;;;0.20;;
9934;SDS011;5006;41.828;23.478;2024-03-25T04:15:04;0.20;;;0.20;;
9934;SDS011;5006;41.828;23.478;2024-03-25T04:16:09;0.25;;;0.25;;
9934;SDS011;5006;41.828;23.478;2024-03-25T04:17:15;0.20;;;0.20;;
9934;SDS011;5006;41.828;23.478;2024-03-25T04:18:20;0.20;;;0.20;;
9934;SDS011;5006;41.828;23.478;2024-03-25T04:19:25;0.20;;;0.20;;
9934;SDS011;5006;41.828;23.478;2024-03-25T04:20:35;0.20;;;0.20;;
9934;SDS011;5006;41.828;23.478;2024-03-25T04:21:42;0.20;;;0.20;;
9934;SDS011;5006;41.828;23.478;2024-03-25T04:22:47;0.20;;;0.20;;
9934;SDS011;5006;41.828;23.478;2024-03-25T04:23:52;0.20;;;0.20;;
9934;SDS011;5006;41.828;23.478;2024-03-25T04:24:58;0.20;;;0.20;;
9934;SDS011;5006;41.828;23.478;2024-03-25T04:26:03;1.23;;;0.20;;
9934;SDS011;5006;41.828;23.478;2024-03-25T04:27:10;0.20;;;0.20;;
9934;SDS011;5006;41.828;23.478;2024-03-25T04:28:15;0.20;;;0.20;;
9934;SDS011;5006;41.828;23.478;2024-03-25T04:29:23;0.30;;;0.30;;
9934;SDS011;5006;41.828;23.478;2024-03-25T04:30:29;0.30;;;0.30;;
9934;SDS011;5006;41.828;23.478;2024-03-25T04:31:34;0.20;;;0.20;;
9934;SDS011;5006;41.828;23.478;2024-03-25T04:32:42;0.20;;;0.20;;
9934;SDS011;5006;41.828;23.478;2024-03-25T04:33:47;0.30;;;0.30;;
9934;SDS011;5006;41.828;23.478;2024-03-25T04:34:53;0.30;;;0.30;;
9934;SDS011;5006;41.828;23.478;2024-03-25T04:35:59;0.30;;;0.30;;
9934;SDS011;5006;41.828;23.478;2024-03-25T04:37:04;0.30;;;0.30;;
9934;SDS011;5006;41.828;23.478;2024-03-25T04:38:10;0.40;;;0.40;;
9934;SDS011;5006;41.828;23.478;2024-03-25T04:39:15;0.60;;;0.50;;
9934;SDS011;5006;41.828;23.478;2024-03-25T04:40:20;0.50;;;0.50;;
9934;SDS011;5006;41.828;23.478;2024-03-25T04:41:26;0.40;;;0.40;;
9934;SDS011;5006;41.828;23.478;2024-03-25T04:42:31;0.47;;;0.47;;
9934;SDS011;5006;41.828;23.478;2024-03-25T04:43:37;0.70;;;0.60;;
9934;SDS011;5006;41.828;23.478;2024-03-25T04:44:44;0.88;;;0.50;;
9934;SDS011;5006;41.828;23.478;2024-03-25T04:45:49;0.43;;;0.43;;
9934;SDS011;5006;41.828;23.478;2024-03-25T04:46:54;0.77;;;0.40;;
9934;SDS011;5006;41.828;23.478;2024-03-25T04:48:00;0.68;;;0.50;;
9934;SDS011;5006;41.828;23.478;2024-03-25T04:49:06;0.50;;;0.40;;
9934;SDS011;5006;41.828;23.478;2024-03-25T04:50:11;0.80;;;0.50;;
9934;SDS011;5006;41.828;23.478;2024-03-25T04:51:16;0.85;;;0.40;;
9934;SDS011;5006;41.828;23.478;2024-03-25T04:52:21;1.08;;;0.50;;
9934;SDS011;5006;41.828;23.478;2024-03-25T04:53:27;0.50;;;0.50;;
9934;SDS011;5006;41.828;23.478;2024-03-25T04:54:32;0.40;;;0.40;;
9934;SDS011;5006;41.828;23.478;2024-03-25T04:55:38;0.30;;;0.30;;
9934;SDS011;5006;41.828;23.478;2024-03-25T04:56:43;0.38;;;0.38;;
9934;SDS011;5006;41.828;23.478;2024-03-25T04:57:48;0.40;;;0.40;;
9934;SDS011;5006;41.828;23.478;2024-03-25T04:58:53;0.40;;;0.40;;
9934;SDS011;5006;41.828;23.478;2024-03-25T05:00:01;0.40;;;0.40;;
9934;SDS011;5006;41.828;23.478;2024-03-25T05:01:07;0.30;;;0.30;;
9934;SDS011;5006;41.828;23.478;2024-03-25T05:02:12;0.30;;;0.30;;
9934;SDS011;5006;41.828;23.478;2024-03-25T05:03:18;0.40;;;0.40;;
9934;SDS011;5006;41.828;23.478;2024-03-25T05:04:23;0.38;;;0.38;;
9934;SDS011;5006;41.828;23.478;2024-03-25T05:05:29;0.40;;;0.40;;
9934;SDS011;5006;41.828;23.478;2024-03-25T05:06:34;0.30;;;0.30;;
9934;SDS011;5006;41.828;23.478;2024-03-25T05:07:39;0.40;;;0.40;;
9934;SDS011;5006;41.828;23.478;2024-03-25T05:08:45;0.40;;;0.40;;
9934;SDS011;5006;41.828;23.478;2024-03-25T05:09:52;0.52;;;0.45;;
9934;SDS011;5006;41.828;23.478;2024-03-25T05:10:57;0.40;;;0.40;;
9934;SDS011;5006;41.828;23.478;2024-03-25T05:12:06;0.40;;;0.40;;
9934;SDS011;5006;41.828;23.478;2024-03-25T05:13:11;0.40;;;0.40;;
9934;SDS011;5006;41.828;23.478;2024-03-25T05:14:16;0.40;;;0.40;;
9934;SDS011;5006;41.828;23.478;2024-03-25T05:15:22;0.40;;;0.40;;
9934;SDS011;5006;41.828;23.478;2024-03-25T05:16:33;0.40;;;0.40;;
9934;SDS011;5006;41.828;23.478;2024-03-25T05:17:39;0.30;;;0.30;;
9934;SDS011;5006;41.828;23.478;2024-03-25T05:18:44;0.50;;;0.40;;
9934;SDS011;5006;41.828;23.478;2024-03-25T05:19:49;0.30;;;0.30;;
9934;SDS011;5006;41.828;23.478;2024-03-25T05:20:55;0.77;;;0.50;;
9934;SDS011;5006;41.828;23.478;2024-03-25T05:22:00;0.50;;;0.50;;
9934;SDS011;5006;41.828;23.478;2024-03-25T05:23:06;1.25;;;0.60;;
9934;SDS011;5006;41.828;23.478;2024-03-25T05:24:11;0.57;;;0.57;;
9934;SDS011;5006;41.828;23.478;2024-03-25T05:25:16;1.05;;;0.63;;
9934;SDS011;5006;41.828;23.478;2024-03-25T05:26:21;0.52;;;0.52;;
9934;SDS011;5006;41.828;23.478;2024-03-25T05:27:26;0.80;;;0.50;;
9934;SDS011;5006;41.828;23.478;2024-03-25T05:28:31;0.60;;;0.60;;
9934;SDS011;5006;41.828;23.478;2024-03-25T05:29:37;0.73;;;0.60;;
9934;SDS011;5006;41.828;23.478;2024-03-25T05:30:43;0.82;;;0.60;;
9934;SDS011;5006;41.828;23.478;2024-03-25T05:31:55;1.40;;;0.75;;
9934;SDS011;5006;41.828;23.478;2024-03-25T05:33:02;1.27;;;0.88;;
9934;SDS011;5006;41.828;23.478;2024-03-25T05:34:07;0.60;;;0.60;;
9934;SDS011;5006;41.828;23.478;2024-03-25T05:35:12;0.60;;;0.60;;
9934;SDS011;5006;41.828;23.478;2024-03-25T05:36:17;0.85;;;0.80;;
9934;SDS011;5006;41.828;23.478;2024-03-25T05:37:23;0.88;;;0.70;;
9934;SDS011;5006;41.828;23.478;2024-03-25T05:38:28;0.80;;;0.80;;
9934;SDS011;5006;41.828;23.478;2024-03-25T05:39:34;0.70;;;0.60;;
9934;SDS011;5006;41.828;23.478;2024-03-25T05:40:39;0.80;;;0.80;;
9934;SDS011;5006;41.828;23.478;2024-03-25T05:41:44;0.80;;;0.70;;
9934;SDS011;5006;41.828;23.478;2024-03-25T05:42:51;1.42;;;0.80;;
9934;SDS011;5006;41.828;23.478;2024-03-25T05:43:56;1.13;;;0.65;;
9934;SDS011;5006;41.828;23.478;2024-03-25T05:45:01;1.23;;;0.80;;
9934;SDS011;5006;41.828;23.478;2024-03-25T05:46:08;0.88;;;0.50;;
9934;SDS011;5006;41.828;23.478;2024-03-25T05:47:14;0.80;;;0.70;;
9934;SDS011;5006;41.828;23.478;2024-03-25T05:48:19;1.08;;;0.60;;
9934;SDS011;5006;41.828;23.478;2024-03-25T05:49:25;2.28;;;0.50;;
9934;SDS011;5006;41.828;23.478;2024-03-25T05:50:31;0.57;;;0.50;;
9934;SDS011;5006;41.828;23.478;2024-03-25T05:51:36;1.05;;;0.60;;
9934;SDS011;5006;41.828;23.478;2024-03-25T05:52:41;1.05;;;0.60;;
9934;SDS011;5006;41.828;23.478;2024-03-25T05:53:47;0.60;;;0.60;;
9934;SDS011;5006;41.828;23.478;2024-03-25T05:54:52;0.57;;;0.50;;
9934;SDS011;5006;41.828;23.478;2024-03-25T05:56:00;1.40;;;0.75;;
9934;SDS011;5006;41.828;23.478;2024-03-25T05:57:05;0.55;;;0.50;;
9934;SDS011;5006;41.828;23.478;2024-03-25T05:58:11;0.60;;;0.60;;
9934;SDS011;5006;41.828;23.478;2024-03-25T05:59:17;0.55;;;0.52;;
9934;SDS011;5006;41.828;23.478;2024-03-25T06:00:22;0.80;;;0.60;;
9934;SDS011;5006;41.828;23.478;2024-03-25T06:01:30;0.40;;;0.40;;
9934;SDS011;5006;41.828;23.478;2024-03-25T06:02:35;2.10;;;0.60;;
9934;SDS011;5006;41.828;23.478;2024-03-25T06:03:43;0.60;;;0.60;;
9934;SDS011;5006;41.828;23.478;2024-03-25T06:04:49;0.63;;;0.55;;
9934;SDS011;5006;41.828;23.478;2024-03-25T06:05:55;0.88;;;0.68;;
9934;SDS011;5006;41.828;23.478;2024-03-25T06:07:00;0.50;;;0.50;;
9934;SDS011;5006;41.828;23.478;2024-03-25T06:08:06;1.83;;;0.70;;
9934;SDS011;5006;41.828;23.478;2024-03-25T06:09:12;0.90;;;0.70;;
9934;SDS011;5006;41.828;23.478;2024-03-25T06:10:17;0.70;;;0.70;;
9934;SDS011;5006;41.828;23.478;2024-03-25T06:11:22;0.70;;;0.70;;
9934;SDS011;5006;41.828;23.478;2024-03-25T06:12:28;0.80;;;0.80;;
9934;SDS011;5006;41.828;23.478;2024-03-25T06:13:33;0.93;;;0.80;;
9934;SDS011;5006;41.828;23.478;2024-03-25T06:14:38;0.77;;;0.75;;
9934;SDS011;5006;41.828;23.478;2024-03-25T06:15:44;0.90;;;0.90;;
9934;SDS011;5006;41.828;23.478;2024-03-25T06:16:51;1.25;;;0.90;;
9934;SDS011;5006;41.828;23.478;2024-03-25T06:17:56;1.27;;;0.90;;
9934;SDS011;5006;41.828;23.478;2024-03-25T06:19:01;1.63;;;1.20;;
9934;SDS011;5006;41.828;23.478;2024-03-25T06:20:07;0.80;;;0.80;;
9934;SDS011;5006;41.828;23.478;2024-03-25T06:21:13;0.70;;;0.70;;
9934;SDS011;5006;41.828;23.478;2024-03-25T06:22:19;1.10;;;0.85;;
9934;SDS011;5006;41.828;23.478;2024-03-25T06:23:24;2.13;;;1.10;;
9934;SDS011;5006;41.828;23.478;2024-03-25T06:24:30;0.93;;;0.80;;
9934;SDS011;5006;41.828;23.478;2024-03-25T06:25:35;1.00;;;0.90;;
9934;SDS011;5006;41.828;23.478;2024-03-25T06:26:41;0.90;;;0.80;;
9934;SDS011;5006;41.828;23.478;2024-03-25T06:27:46;1.10;;;1.00;;
9934;SDS011;5006;41.828;23.478;2024-03-25T06:28:52;1.30;;;1.20;;
9934;SDS011;5006;41.828;23.478;2024-03-25T06:29:57;0.70;;;0.70;;
9934;SDS011;5006;41.828;23.478;2024-03-25T06:31:02;1.42;;;0.90;;
9934;SDS011;5006;41.828;23.478;2024-03-25T06:32:28;1.23;;;0.80;;
9934;SDS011;5006;41.828;23.478;2024-03-25T06:33:51;2.55;;;1.10;;
9934;SDS011;5006;41.828;23.478;2024-03-25T06:35:15;1.73;;;0.93;;
9934;SDS011;5006;41.828;23.478;2024-03-25T06:36:21;1.48;;;1.08;;
9934;SDS011;5006;41.828;23.478;2024-03-25T06:37:28;0.90;;;0.90;;
9934;SDS011;5006;41.828;23.478;2024-03-25T06:38:34;1.10;;;1.00;;
9934;SDS011;5006;41.828;23.478;2024-03-25T06:39:39;1.08;;;0.95;;
9934;SDS011;5006;41.828;23.478;2024-03-25T06:40:44;3.85;;;1.20;;
9934;SDS011;5006;41.828;23.478;2024-03-25T06:41:50;1.00;;;0.90;;
9934;SDS011;5006;41.828;23.478;2024-03-25T06:42:56;0.85;;;0.85;;
9934;SDS011;5006;41.828;23.478;2024-03-25T06:44:01;1.70;;;1.00;;
9934;SDS011;5006;41.828;23.478;2024-03-25T06:45:08;1.40;;;1.20;;